Brandon, South Dakota
Current Conditions -  °F | °C
As of 3:56 PM on Monday 22 Dec 2014 (Local Time) from KFSD Reporting Station
Light Rain Light Rain  
Wind Chill: 33°   Ceiling: 300
Heat Index: 38°   Visibility: 0.5mi
Dew Point: 36°   Wind: 7mph
Humidity: 93%   Direction: 330°NNW
Pressure: 29.41"   Gusts: NA
Location:  43.59°N, 96.57°W
Report Text: KFSD 222156Z 33006KT 1/2SM R03/P6000FT -RA FG BKN003 OVC005 03/02 A2941 RMK AO2 TWR VIS 3/4 DZE32RAB32 SLP970 P0000 T00330022
Loading
Personal Weather Stations






























Interactive Weather Map New forecast layout! Learn more

10-Day Weather Forecast

Advertisements
Track Severe Weather on mobile